createdAt,value
2019-03-25T00:01:54.235Z,77.15
2019-03-25T00:04:31.026Z,77.08
2019-03-25T00:07:09.561Z,70.67
2019-03-25T00:09:46.468Z,72.37
2019-03-25T00:12:24.000Z,64.20
2019-03-25T00:15:01.318Z,74.58
2019-03-25T00:17:39.340Z,69.17
2019-03-25T00:20:18.674Z,65.80
2019-03-25T00:22:57.708Z,59.93
2019-03-25T00:25:34.627Z,58.30
2019-03-25T00:28:13.668Z,91.70
2019-03-25T00:30:50.149Z,65.30
2019-03-25T00:33:27.160Z,63.50
2019-03-25T00:36:04.213Z,56.53
2019-03-25T00:38:41.083Z,59.83
2019-03-25T00:41:18.528Z,61.85
2019-03-25T00:43:55.616Z,57.70
2019-03-25T00:46:33.603Z,119.35
2019-03-25T00:49:10.470Z,60.65
2019-03-25T00:51:47.246Z,54.90
2019-03-25T00:54:27.226Z,56.85
2019-03-25T00:57:07.033Z,54.27
2019-03-25T00:59:43.832Z,52.93
2019-03-25T01:02:21.002Z,54.33
2019-03-25T01:04:58.015Z,56.42
2019-03-25T01:07:35.284Z,55.45
2019-03-25T01:10:12.151Z,51.45
2019-03-25T01:12:49.089Z,49.77
2019-03-25T01:15:25.711Z,48.78
2019-03-25T01:18:02.336Z,50.92
2019-03-25T01:20:39.364Z,51.10
2019-03-25T01:23:25.159Z,46.90
2019-03-25T01:26:02.606Z,50.63
2019-03-25T01:28:39.238Z,50.30
2019-03-25T01:31:16.123Z,55.30
2019-03-25T01:33:52.948Z,49.15
2019-03-25T01:36:29.972Z,52.55
2019-03-25T01:39:07.660Z,45.83
2019-03-25T01:41:44.632Z,54.75
2019-03-25T01:44:22.658Z,53.95
2019-03-25T01:46:59.498Z,48.05
2019-03-25T01:49:36.509Z,46.48
2019-03-25T01:52:18.616Z,47.10
2019-03-25T01:54:55.618Z,47.27
2019-03-25T01:57:32.602Z,47.00
2019-03-25T02:00:11.266Z,44.75
2019-03-25T02:02:51.260Z,48.52
2019-03-25T02:05:32.601Z,51.42
2019-03-25T02:08:09.832Z,46.95
2019-03-25T02:10:47.289Z,49.13
2019-03-25T02:13:23.953Z,47.23
2019-03-25T02:16:01.843Z,44.33
2019-03-25T02:18:39.318Z,40.48
2019-03-25T02:21:19.288Z,41.55
2019-03-25T02:23:56.422Z,37.88
2019-03-25T02:26:33.639Z,42.08
2019-03-25T02:29:12.072Z,37.08
2019-03-25T02:31:49.018Z,40.52
2019-03-25T02:34:25.955Z,43.05
2019-03-25T02:37:03.336Z,39.25
2019-03-25T02:39:40.526Z,34.25
2019-03-25T02:42:19.480Z,35.70
2019-03-25T02:44:56.569Z,35.68
2019-03-25T02:47:33.923Z,32.70
2019-03-25T02:50:11.164Z,30.77
2019-03-25T02:52:48.306Z,33.50
2019-03-25T02:55:40.115Z,32.00
2019-03-25T02:58:03.622Z,34.78
2019-03-25T03:00:46.877Z,33.40
2019-03-25T03:03:23.962Z,40.05
2019-03-25T03:06:01.249Z,31.82
2019-03-25T03:08:37.561Z,30.05
2019-03-25T03:11:14.589Z,28.67
2019-03-25T03:13:51.812Z,29.45
2019-03-25T03:16:28.812Z,28.23
2019-03-25T03:19:05.882Z,34.43
2019-03-25T03:21:43.143Z,28.80
2019-03-25T03:24:20.835Z,30.27
2019-03-25T03:26:58.245Z,31.05
2019-03-25T03:29:36.442Z,28.10
2019-03-25T03:32:13.891Z,30.37
2019-03-25T03:34:50.442Z,30.23
2019-03-25T03:37:27.214Z,28.52
2019-03-25T03:40:03.779Z,27.20
2019-03-25T03:42:41.241Z,31.20
2019-03-25T03:45:20.827Z,28.30
2019-03-25T03:47:57.590Z,30.77
2019-03-25T03:50:35.001Z,29.80
2019-03-25T03:53:12.472Z,29.82
2019-03-25T03:55:49.559Z,31.23
2019-03-25T03:58:27.787Z,31.30
2019-03-25T04:01:04.653Z,30.17
2019-03-25T04:03:41.535Z,43.13
2019-03-25T04:06:18.341Z,26.60
2019-03-25T04:08:55.597Z,29.00
2019-03-25T04:11:32.579Z,29.85
2019-03-25T04:14:10.246Z,28.73
2019-03-25T04:16:47.239Z,32.48
2019-03-25T04:19:24.517Z,29.55
2019-03-25T04:22:01.575Z,34.30
2019-03-25T04:24:38.766Z,27.58
2019-03-25T04:27:15.780Z,34.73
2019-03-25T04:29:52.709Z,26.23
2019-03-25T04:32:29.975Z,23.92
2019-03-25T04:35:06.928Z,25.23
2019-03-25T04:38:03.571Z,24.30
2019-03-25T04:40:40.753Z,27.13
2019-03-25T04:43:18.256Z,25.32
2019-03-25T04:45:55.198Z,23.70
2019-03-25T04:48:32.616Z,23.73
2019-03-25T04:51:09.434Z,26.40
2019-03-25T04:53:46.675Z,27.27
2019-03-25T04:56:23.780Z,27.77
2019-03-25T04:59:01.024Z,25.40
2019-03-25T05:01:37.817Z,28.67
2019-03-25T05:04:14.930Z,29.00
2019-03-25T05:06:51.872Z,26.25
2019-03-25T05:09:29.056Z,23.60
2019-03-25T05:12:06.231Z,24.70
2019-03-25T05:14:43.260Z,28.15
2019-03-25T05:17:20.016Z,27.35
2019-03-25T05:19:56.986Z,26.55
2019-03-25T05:22:33.980Z,25.48
2019-03-25T05:25:11.236Z,25.02
2019-03-25T05:27:49.185Z,26.07
2019-03-25T05:30:26.486Z,26.33
2019-03-25T05:33:03.288Z,27.58
2019-03-25T05:35:40.991Z,29.65
2019-03-25T05:38:18.176Z,23.95
2019-03-25T05:40:55.298Z,24.75
2019-03-25T05:43:32.356Z,24.98
2019-03-25T05:46:10.411Z,25.40
2019-03-25T05:48:47.524Z,24.12
2019-03-25T05:51:24.826Z,23.90
2019-03-25T05:54:01.754Z,24.65
2019-03-25T05:56:38.753Z,25.80
2019-03-25T05:59:15.865Z,25.70
2019-03-25T06:01:55.398Z,25.57
2019-03-25T06:04:32.422Z,29.72
2019-03-25T06:07:09.188Z,27.52
2019-03-25T06:09:46.273Z,27.90
2019-03-25T06:12:23.289Z,28.67
2019-03-25T06:14:59.942Z,26.48
2019-03-25T06:17:37.075Z,29.27
2019-03-25T06:20:14.244Z,27.70
2019-03-25T06:22:51.122Z,27.45
2019-03-25T06:25:28.487Z,25.05
2019-03-25T06:28:05.647Z,25.92
2019-03-25T06:30:42.880Z,25.00
2019-03-25T06:33:19.841Z,24.72
2019-03-25T06:35:57.240Z,24.23
2019-03-25T06:38:34.465Z,24.12
2019-03-25T06:41:11.951Z,23.57
2019-03-25T06:43:49.063Z,24.32
2019-03-25T06:46:26.501Z,24.65
2019-03-25T06:49:03.514Z,26.45
2019-03-25T06:51:40.562Z,24.43
2019-03-25T06:54:18.004Z,24.85
2019-03-25T06:56:54.773Z,24.27
2019-03-25T06:59:32.159Z,26.27
2019-03-25T07:02:09.454Z,29.67
2019-03-25T07:04:46.689Z,24.15
2019-03-25T07:07:24.075Z,24.45
2019-03-25T07:10:00.931Z,24.23
2019-03-25T07:12:38.185Z,24.00
2019-03-25T07:15:15.403Z,27.67
2019-03-25T07:17:52.352Z,26.57
2019-03-25T07:20:29.264Z,25.08
2019-03-25T07:23:06.142Z,25.02
2019-03-25T07:25:43.234Z,24.80
2019-03-25T07:28:20.259Z,31.60
2019-03-25T07:30:57.434Z,26.25
2019-03-25T07:33:34.509Z,28.92
2019-03-25T07:36:11.617Z,25.02
2019-03-25T07:38:48.754Z,25.80
2019-03-25T07:41:25.745Z,24.67
2019-03-25T07:44:03.320Z,24.75
2019-03-25T07:46:40.390Z,27.70
2019-03-25T07:49:17.636Z,26.70
2019-03-25T07:51:54.786Z,25.97
2019-03-25T07:54:31.783Z,25.43
2019-03-25T07:57:08.915Z,24.85
2019-03-25T07:59:45.790Z,25.85
2019-03-25T08:02:22.812Z,25.82
2019-03-25T08:05:00.411Z,27.00
2019-03-25T08:07:37.554Z,29.32
2019-03-25T08:10:14.790Z,28.23
2019-03-25T08:12:51.597Z,27.17
2019-03-25T08:15:29.284Z,27.80
2019-03-25T08:18:07.524Z,27.58
2019-03-25T08:20:44.355Z,27.62
2019-03-25T08:23:21.359Z,26.40
2019-03-25T08:25:58.343Z,27.37
2019-03-25T08:28:35.309Z,28.47
2019-03-25T08:31:12.205Z,26.65
2019-03-25T08:33:49.870Z,26.45
2019-03-25T08:36:27.356Z,27.58
2019-03-25T08:39:05.314Z,26.87
2019-03-25T08:41:42.547Z,25.30
2019-03-25T08:44:19.148Z,30.23
2019-03-25T08:46:59.067Z,62.85
2019-03-25T08:49:36.063Z,27.17
2019-03-25T08:52:13.000Z,26.55
2019-03-25T08:54:49.929Z,29.07
2019-03-25T08:57:26.981Z,27.90
2019-03-25T09:00:03.812Z,27.50
2019-03-25T09:02:40.998Z,32.93
2019-03-25T09:05:19.280Z,24.82
2019-03-25T09:07:56.161Z,24.87
2019-03-25T09:10:33.992Z,28.50
2019-03-25T09:13:10.771Z,28.73
2019-03-25T09:15:48.142Z,25.32
2019-03-25T09:18:25.702Z,26.60
2019-03-25T09:21:02.783Z,25.12
2019-03-25T09:23:40.079Z,24.67
2019-03-25T09:26:17.161Z,24.00
2019-03-25T09:28:54.444Z,24.63
2019-03-25T09:31:36.662Z,26.33
2019-03-25T09:34:10.575Z,27.25
2019-03-25T09:36:47.917Z,25.35
2019-03-25T09:39:24.991Z,24.32
2019-03-25T09:42:02.121Z,24.55
2019-03-25T09:44:39.032Z,28.45
2019-03-25T09:47:15.954Z,28.23
2019-03-25T09:49:53.614Z,28.32
2019-03-25T09:52:38.419Z,26.40
2019-03-25T09:55:09.303Z,25.05
2019-03-25T09:57:51.718Z,29.72
2019-03-25T10:00:34.605Z,33.20
2019-03-25T10:03:11.993Z,28.40
2019-03-25T10:05:48.948Z,25.52
2019-03-25T10:08:26.014Z,24.72
2019-03-25T10:11:03.594Z,27.37
2019-03-25T10:13:40.360Z,30.20
2019-03-25T10:16:20.627Z,32.17
2019-03-25T10:18:57.847Z,25.20
2019-03-25T10:21:34.723Z,24.75
2019-03-25T10:24:12.150Z,24.30
2019-03-25T10:26:48.975Z,30.37
2019-03-25T10:29:25.868Z,32.73
2019-03-25T10:32:03.099Z,35.20
2019-03-25T10:34:43.509Z,25.15
2019-03-25T10:37:21.048Z,24.75
2019-03-25T10:39:58.175Z,36.13
2019-03-25T10:42:35.184Z,32.38
2019-03-25T10:45:12.358Z,31.50
2019-03-25T10:47:51.935Z,27.17
2019-03-25T10:50:29.136Z,33.60
2019-03-25T10:53:07.601Z,35.80
2019-03-25T10:55:44.865Z,55.75
2019-03-25T10:58:22.297Z,52.30
2019-03-25T11:00:59.535Z,49.18
2019-03-25T22:19:03.313Z,52.93
2019-03-25T22:21:40.378Z,65.67
2019-03-25T22:24:19.284Z,62.73
2019-03-25T22:26:58.284Z,63.25
2019-03-25T22:29:35.658Z,64.90
2019-03-25T22:32:12.686Z,67.17
2019-03-25T22:34:50.007Z,65.87
2019-03-25T22:37:27.045Z,55.50
2019-03-25T22:40:05.628Z,62.48
2019-03-25T22:42:42.233Z,58.87
2019-03-25T22:45:21.349Z,61.28
2019-03-25T22:47:58.443Z,72.10
2019-03-25T22:50:37.045Z,60.43
2019-03-25T22:53:13.629Z,60.38
2019-03-25T22:55:51.228Z,60.83
2019-03-25T22:58:28.172Z,59.85
2019-03-25T23:01:06.181Z,61.75
2019-03-25T23:03:43.082Z,59.83
2019-03-25T23:06:20.310Z,66.45
2019-03-25T23:08:57.322Z,67.53
2019-03-25T23:11:34.827Z,59.77
2019-03-25T23:14:11.641Z,67.55
2019-03-25T23:16:48.598Z,64.77
2019-03-25T23:19:27.084Z,110.22
2019-03-25T23:22:04.691Z,62.27
2019-03-25T23:24:42.079Z,77.15
2019-03-25T23:27:18.873Z,98.78
2019-03-25T23:29:56.209Z,82.40
2019-03-25T23:32:33.409Z,79.87
2019-03-25T23:35:10.490Z,80.95
2019-03-25T23:37:47.711Z,65.10
2019-03-25T23:40:24.324Z,70.65
2019-03-25T23:43:01.536Z,79.47
2019-03-25T23:45:39.061Z,94.95
2019-03-25T23:48:15.780Z,75.12
2019-03-25T23:50:52.761Z,64.27
2019-03-25T23:53:30.089Z,69.92
2019-03-25T23:56:06.768Z,66.90
2019-03-25T23:58:43.749Z,72.05
